sensor_id;sensor_type;location;lat;lon;timestamp;temperature;humidity
14755;DHT22;7469;50.906;6.952;2022-11-15T00:01:15;10.50;99.90
14755;DHT22;7469;50.906;6.952;2022-11-15T00:03:44;10.50;99.90
14755;DHT22;7469;50.906;6.952;2022-11-15T00:06:13;10.60;99.90
14755;DHT22;7469;50.906;6.952;2022-11-15T00:08:41;10.50;99.90
14755;DHT22;7469;50.906;6.952;2022-11-15T00:11:11;10.50;99.90
14755;DHT22;7469;50.906;6.952;2022-11-15T00:13:39;10.50;99.90
14755;DHT22;7469;50.906;6.952;2022-11-15T00:16:10;10.50;99.90
14755;DHT22;7469;50.906;6.952;2022-11-15T00:18:38;10.60;99.90
14755;DHT22;7469;50.906;6.952;2022-11-15T00:21:11;10.60;99.90
14755;DHT22;7469;50.906;6.952;2022-11-15T00:23:39;10.60;99.90
14755;DHT22;7469;50.906;6.952;2022-11-15T00:26:11;10.60;99.90
14755;DHT22;7469;50.906;6.952;2022-11-15T00:28:39;10.70;99.90
14755;DHT22;7469;50.906;6.952;2022-11-15T00:31:13;10.70;99.90
14755;DHT22;7469;50.906;6.952;2022-11-15T00:33:43;10.70;99.90
14755;DHT22;7469;50.906;6.952;2022-11-15T00:36:11;10.70;99.90
14755;DHT22;7469;50.906;6.952;2022-11-15T00:38:40;10.70;99.90
14755;DHT22;7469;50.906;6.952;2022-11-15T00:41:08;10.70;99.90
14755;DHT22;7469;50.906;6.952;2022-11-15T00:43:36;10.70;99.90
14755;DHT22;7469;50.906;6.952;2022-11-15T00:46:06;10.70;99.90
14755;DHT22;7469;50.906;6.952;2022-11-15T00:48:37;10.80;99.90
14755;DHT22;7469;50.906;6.952;2022-11-15T00:51:05;10.80;99.90
14755;DHT22;7469;50.906;6.952;2022-11-15T00:53:33;10.80;99.90
14755;DHT22;7469;50.906;6.952;2022-11-15T00:56:01;10.80;99.90
14755;DHT22;7469;50.906;6.952;2022-11-15T00:58:29;10.90;99.90
14755;DHT22;7469;50.906;6.952;2022-11-15T01:01:05;10.90;99.90
14755;DHT22;7469;50.906;6.952;2022-11-15T01:03:34;11.00;99.90
14755;DHT22;7469;50.906;6.952;2022-11-15T01:06:03;11.00;99.90
14755;DHT22;7469;50.906;6.952;2022-11-15T01:08:31;11.00;99.90
14755;DHT22;7469;50.906;6.952;2022-11-15T01:11:04;11.10;99.90
14755;DHT22;7469;50.906;6.952;2022-11-15T01:13:33;11.00;99.90
14755;DHT22;7469;50.906;6.952;2022-11-15T01:16:06;11.10;99.90
14755;DHT22;7469;50.906;6.952;2022-11-15T01:18:34;11.10;99.90
14755;DHT22;7469;50.906;6.952;2022-11-15T01:21:08;11.10;99.90
14755;DHT22;7469;50.906;6.952;2022-11-15T01:23:37;11.20;99.90
14755;DHT22;7469;50.906;6.952;2022-11-15T01:26:09;11.20;99.90
14755;DHT22;7469;50.906;6.952;2022-11-15T01:28:38;11.20;99.90
14755;DHT22;7469;50.906;6.952;2022-11-15T01:31:09;11.20;99.90
14755;DHT22;7469;50.906;6.952;2022-11-15T01:33:39;11.20;99.90
14755;DHT22;7469;50.906;6.952;2022-11-15T01:36:11;11.30;99.90
14755;DHT22;7469;50.906;6.952;2022-11-15T01:38:39;11.20;99.90
14755;DHT22;7469;50.906;6.952;2022-11-15T01:41:15;11.40;99.90
14755;DHT22;7469;50.906;6.952;2022-11-15T01:43:43;11.40;99.90
14755;DHT22;7469;50.906;6.952;2022-11-15T01:46:22;11.40;99.90
14755;DHT22;7469;50.906;6.952;2022-11-15T01:48:52;11.40;99.90
14755;DHT22;7469;50.906;6.952;2022-11-15T01:51:24;11.40;99.90
14755;DHT22;7469;50.906;6.952;2022-11-15T01:53:56;11.40;99.90
14755;DHT22;7469;50.906;6.952;2022-11-15T01:56:29;11.50;99.90
14755;DHT22;7469;50.906;6.952;2022-11-15T01:59:02;11.40;99.90
14755;DHT22;7469;50.906;6.952;2022-11-15T02:01:31;11.50;99.90
14755;DHT22;7469;50.906;6.952;2022-11-15T02:04:04;11.50;99.90
14755;DHT22;7469;50.906;6.952;2022-11-15T02:06:37;11.50;99.90
14755;DHT22;7469;50.906;6.952;2022-11-15T02:09:06;11.50;99.90
14755;DHT22;7469;50.906;6.952;2022-11-15T02:11:34;11.50;99.90
14755;DHT22;7469;50.906;6.952;2022-11-15T02:14:02;11.60;99.90
14755;DHT22;7469;50.906;6.952;2022-11-15T02:16:35;11.50;99.90
14755;DHT22;7469;50.906;6.952;2022-11-15T02:19:18;11.60;99.90
14755;DHT22;7469;50.906;6.952;2022-11-15T02:22:00;11.60;99.90
14755;DHT22;7469;50.906;6.952;2022-11-15T02:25:01;11.60;99.90
14755;DHT22;7469;50.906;6.952;2022-11-15T02:27:49;11.60;99.90
14755;DHT22;7469;50.906;6.952;2022-11-15T02:30:24;11.60;99.90
14755;DHT22;7469;50.906;6.952;2022-11-15T02:32:58;11.60;99.90
14755;DHT22;7469;50.906;6.952;2022-11-15T02:35:34;11.70;99.90
14755;DHT22;7469;50.906;6.952;2022-11-15T02:38:10;11.70;99.90
14755;DHT22;7469;50.906;6.952;2022-11-15T02:40:47;11.70;99.90
14755;DHT22;7469;50.906;6.952;2022-11-15T02:43:23;11.60;99.90
14755;DHT22;7469;50.906;6.952;2022-11-15T02:46:16;11.70;99.90
14755;DHT22;7469;50.906;6.952;2022-11-15T02:48:48;11.70;99.90
14755;DHT22;7469;50.906;6.952;2022-11-15T02:51:16;11.70;99.90
14755;DHT22;7469;50.906;6.952;2022-11-15T02:53:45;11.70;99.90
14755;DHT22;7469;50.906;6.952;2022-11-15T02:56:12;11.70;99.90
14755;DHT22;7469;50.906;6.952;2022-11-15T02:59:01;11.80;99.90
14755;DHT22;7469;50.906;6.952;2022-11-15T03:01:40;11.80;99.90
14755;DHT22;7469;50.906;6.952;2022-11-15T03:04:21;11.80;99.90
14755;DHT22;7469;50.906;6.952;2022-11-15T03:06:55;11.90;99.90
14755;DHT22;7469;50.906;6.952;2022-11-15T03:09:31;11.90;99.90
14755;DHT22;7469;50.906;6.952;2022-11-15T03:12:06;12.00;99.90
14755;DHT22;7469;50.906;6.952;2022-11-15T03:14:37;11.90;99.90
14755;DHT22;7469;50.906;6.952;2022-11-15T03:17:15;12.00;99.90
14755;DHT22;7469;50.906;6.952;2022-11-15T03:19:46;12.00;99.90
14755;DHT22;7469;50.906;6.952;2022-11-15T03:22:16;12.00;99.90
14755;DHT22;7469;50.906;6.952;2022-11-15T03:24:47;12.00;99.90
14755;DHT22;7469;50.906;6.952;2022-11-15T03:27:21;12.10;99.90
14755;DHT22;7469;50.906;6.952;2022-11-15T03:29:52;12.10;99.90
14755;DHT22;7469;50.906;6.952;2022-11-15T03:32:26;12.10;99.90
14755;DHT22;7469;50.906;6.952;2022-11-15T03:34:58;12.10;99.90
14755;DHT22;7469;50.906;6.952;2022-11-15T03:37:30;12.10;99.90
14755;DHT22;7469;50.906;6.952;2022-11-15T03:40:00;12.10;99.90
14755;DHT22;7469;50.906;6.952;2022-11-15T03:42:31;12.10;99.90
14755;DHT22;7469;50.906;6.952;2022-11-15T03:45:10;12.10;99.90
14755;DHT22;7469;50.906;6.952;2022-11-15T03:47:43;12.10;99.90
14755;DHT22;7469;50.906;6.952;2022-11-15T03:50:16;12.10;99.90
14755;DHT22;7469;50.906;6.952;2022-11-15T03:52:46;12.10;99.90
14755;DHT22;7469;50.906;6.952;2022-11-15T03:55:17;12.10;99.90
14755;DHT22;7469;50.906;6.952;2022-11-15T03:57:46;12.10;99.90
14755;DHT22;7469;50.906;6.952;2022-11-15T04:00:15;12.10;99.90
14755;DHT22;7469;50.906;6.952;2022-11-15T04:02:45;12.10;99.90
14755;DHT22;7469;50.906;6.952;2022-11-15T04:05:13;12.10;99.90
14755;DHT22;7469;50.906;6.952;2022-11-15T04:07:40;12.10;99.90
14755;DHT22;7469;50.906;6.952;2022-11-15T04:10:10;12.10;99.90
14755;DHT22;7469;50.906;6.952;2022-11-15T04:12:39;12.10;99.90
14755;DHT22;7469;50.906;6.952;2022-11-15T04:15:11;12.10;99.90
14755;DHT22;7469;50.906;6.952;2022-11-15T04:17:41;12.10;99.90
14755;DHT22;7469;50.906;6.952;2022-11-15T04:20:13;12.10;99.90
14755;DHT22;7469;50.906;6.952;2022-11-15T04:23:00;12.10;99.90
14755;DHT22;7469;50.906;6.952;2022-11-15T04:25:49;12.20;99.90
14755;DHT22;7469;50.906;6.952;2022-11-15T04:28:18;12.10;99.90
14755;DHT22;7469;50.906;6.952;2022-11-15T04:30:46;12.10;99.90
14755;DHT22;7469;50.906;6.952;2022-11-15T04:33:14;12.10;99.90
14755;DHT22;7469;50.906;6.952;2022-11-15T04:35:44;12.10;99.90
14755;DHT22;7469;50.906;6.952;2022-11-15T04:38:32;12.20;99.90
14755;DHT22;7469;50.906;6.952;2022-11-15T04:40:59;12.20;99.90
14755;DHT22;7469;50.906;6.952;2022-11-15T04:43:27;12.20;99.90
14755;DHT22;7469;50.906;6.952;2022-11-15T04:45:56;12.20;99.90
14755;DHT22;7469;50.906;6.952;2022-11-15T04:48:24;12.20;99.90
14755;DHT22;7469;50.906;6.952;2022-11-15T04:50:53;12.20;99.90
14755;DHT22;7469;50.906;6.952;2022-11-15T04:53:21;12.20;99.90
14755;DHT22;7469;50.906;6.952;2022-11-15T04:55:49;12.30;99.90
14755;DHT22;7469;50.906;6.952;2022-11-15T04:58:17;12.20;99.90
14755;DHT22;7469;50.906;6.952;2022-11-15T05:00:45;12.30;99.90
14755;DHT22;7469;50.906;6.952;2022-11-15T05:03:13;12.20;99.90
14755;DHT22;7469;50.906;6.952;2022-11-15T05:06:00;12.20;99.90
14755;DHT22;7469;50.906;6.952;2022-11-15T05:08:28;12.20;99.90
14755;DHT22;7469;50.906;6.952;2022-11-15T05:10:56;12.20;99.90
14755;DHT22;7469;50.906;6.952;2022-11-15T05:13:24;12.10;99.90
14755;DHT22;7469;50.906;6.952;2022-11-15T05:15:52;12.10;99.90
14755;DHT22;7469;50.906;6.952;2022-11-15T05:18:20;12.00;99.90
14755;DHT22;7469;50.906;6.952;2022-11-15T05:20:49;12.00;99.90
14755;DHT22;7469;50.906;6.952;2022-11-15T05:23:18;11.90;99.90
14755;DHT22;7469;50.906;6.952;2022-11-15T05:25:46;11.90;99.90
14755;DHT22;7469;50.906;6.952;2022-11-15T05:28:14;11.90;99.90
14755;DHT22;7469;50.906;6.952;2022-11-15T05:30:42;11.90;99.90
14755;DHT22;7469;50.906;6.952;2022-11-15T05:33:10;11.90;99.90
14755;DHT22;7469;50.906;6.952;2022-11-15T05:35:42;11.80;99.90
14755;DHT22;7469;50.906;6.952;2022-11-15T05:38:11;11.80;99.90
14755;DHT22;7469;50.906;6.952;2022-11-15T05:40:40;11.80;99.90
14755;DHT22;7469;50.906;6.952;2022-11-15T05:43:09;11.70;99.90
14755;DHT22;7469;50.906;6.952;2022-11-15T05:45:38;11.70;99.90
14755;DHT22;7469;50.906;6.952;2022-11-15T05:48:07;11.70;99.90
14755;DHT22;7469;50.906;6.952;2022-11-15T05:50:37;11.60;99.90
14755;DHT22;7469;50.906;6.952;2022-11-15T05:53:06;11.60;99.90
14755;DHT22;7469;50.906;6.952;2022-11-15T05:55:34;11.50;99.90
14755;DHT22;7469;50.906;6.952;2022-11-15T05:58:04;11.50;99.90
14755;DHT22;7469;50.906;6.952;2022-11-15T06:00:32;11.50;99.90
14755;DHT22;7469;50.906;6.952;2022-11-15T06:02:59;11.40;99.90
14755;DHT22;7469;50.906;6.952;2022-11-15T06:05:27;11.40;99.90
14755;DHT22;7469;50.906;6.952;2022-11-15T06:07:57;11.40;99.90
14755;DHT22;7469;50.906;6.952;2022-11-15T06:10:25;11.40;99.90
14755;DHT22;7469;50.906;6.952;2022-11-15T06:12:57;11.30;99.90
14755;DHT22;7469;50.906;6.952;2022-11-15T06:15:26;11.30;99.90
14755;DHT22;7469;50.906;6.952;2022-11-15T06:17:56;11.30;99.90
14755;DHT22;7469;50.906;6.952;2022-11-15T06:20:25;11.20;99.90
14755;DHT22;7469;50.906;6.952;2022-11-15T06:22:56;11.20;99.90
14755;DHT22;7469;50.906;6.952;2022-11-15T06:25:25;11.20;99.90
14755;DHT22;7469;50.906;6.952;2022-11-15T06:27:55;11.20;99.90
14755;DHT22;7469;50.906;6.952;2022-11-15T06:30:25;11.10;99.90
14755;DHT22;7469;50.906;6.952;2022-11-15T06:33:02;11.10;99.90
14755;DHT22;7469;50.906;6.952;2022-11-15T06:35:33;11.10;99.90
14755;DHT22;7469;50.906;6.952;2022-11-15T06:38:03;11.10;99.90
14755;DHT22;7469;50.906;6.952;2022-11-15T06:40:33;11.00;99.90
14755;DHT22;7469;50.906;6.952;2022-11-15T06:43:02;10.90;99.90
14755;DHT22;7469;50.906;6.952;2022-11-15T06:45:34;11.00;99.90
14755;DHT22;7469;50.906;6.952;2022-11-15T06:48:02;11.00;99.90
14755;DHT22;7469;50.906;6.952;2022-11-15T06:50:30;11.00;99.90
14755;DHT22;7469;50.906;6.952;2022-11-15T06:53:01;11.00;99.90
14755;DHT22;7469;50.906;6.952;2022-11-15T06:55:29;11.00;99.90
14755;DHT22;7469;50.906;6.952;2022-11-15T06:57:57;10.90;99.90
14755;DHT22;7469;50.906;6.952;2022-11-15T07:00:25;10.90;99.90
14755;DHT22;7469;50.906;6.952;2022-11-15T07:02:54;10.90;99.90
14755;DHT22;7469;50.906;6.952;2022-11-15T07:05:22;10.90;99.90
14755;DHT22;7469;50.906;6.952;2022-11-15T07:07:54;10.90;99.90
14755;DHT22;7469;50.906;6.952;2022-11-15T07:10:23;10.90;99.90
14755;DHT22;7469;50.906;6.952;2022-11-15T07:12:52;11.00;99.90
14755;DHT22;7469;50.906;6.952;2022-11-15T07:15:22;11.00;99.90
14755;DHT22;7469;50.906;6.952;2022-11-15T07:17:51;11.10;99.90
14755;DHT22;7469;50.906;6.952;2022-11-15T07:20:20;11.10;99.90
14755;DHT22;7469;50.906;6.952;2022-11-15T07:22:48;11.10;99.90
14755;DHT22;7469;50.906;6.952;2022-11-15T07:25:16;11.10;99.90
14755;DHT22;7469;50.906;6.952;2022-11-15T07:27:44;11.10;99.90
14755;DHT22;7469;50.906;6.952;2022-11-15T07:30:21;11.10;99.90
14755;DHT22;7469;50.906;6.952;2022-11-15T07:32:53;11.10;99.90
14755;DHT22;7469;50.906;6.952;2022-11-15T07:35:23;11.10;99.90
14755;DHT22;7469;50.906;6.952;2022-11-15T07:37:55;11.10;99.90
14755;DHT22;7469;50.906;6.952;2022-11-15T07:40:24;11.20;99.90
14755;DHT22;7469;50.906;6.952;2022-11-15T07:42:52;11.20;99.90
14755;DHT22;7469;50.906;6.952;2022-11-15T07:45:20;11.30;99.90
14755;DHT22;7469;50.906;6.952;2022-11-15T07:47:49;11.30;99.90
14755;DHT22;7469;50.906;6.952;2022-11-15T07:50:17;11.40;99.90
14755;DHT22;7469;50.906;6.952;2022-11-15T07:52:47;11.50;99.90
14755;DHT22;7469;50.906;6.952;2022-11-15T07:55:15;11.60;99.90
14755;DHT22;7469;50.906;6.952;2022-11-15T07:57:43;11.70;99.90
14755;DHT22;7469;50.906;6.952;2022-11-15T08:00:12;11.80;99.90
14755;DHT22;7469;50.906;6.952;2022-11-15T08:02:40;11.80;99.90
14755;DHT22;7469;50.906;6.952;2022-11-15T08:05:08;11.90;99.90
14755;DHT22;7469;50.906;6.952;2022-11-15T08:07:36;12.00;99.90
14755;DHT22;7469;50.906;6.952;2022-11-15T08:10:07;12.00;99.90
14755;DHT22;7469;50.906;6.952;2022-11-15T08:12:35;12.10;99.90
14755;DHT22;7469;50.906;6.952;2022-11-15T08:15:04;12.20;99.90
14755;DHT22;7469;50.906;6.952;2022-11-15T08:17:32;12.20;99.90
14755;DHT22;7469;50.906;6.952;2022-11-15T08:20:00;12.30;99.90
14755;DHT22;7469;50.906;6.952;2022-11-15T08:22:29;12.40;99.90
14755;DHT22;7469;50.906;6.952;2022-11-15T08:24:56;12.50;99.90
14755;DHT22;7469;50.906;6.952;2022-11-15T08:27:26;12.50;99.90
14755;DHT22;7469;50.906;6.952;2022-11-15T08:29:54;12.60;99.90
14755;DHT22;7469;50.906;6.952;2022-11-15T08:32:25;12.70;99.90
14755;DHT22;7469;50.906;6.952;2022-11-15T08:34:53;12.70;99.90
14755;DHT22;7469;50.906;6.952;2022-11-15T08:37:21;12.80;99.90
14755;DHT22;7469;50.906;6.952;2022-11-15T08:39:49;12.90;99.90
14755;DHT22;7469;50.906;6.952;2022-11-15T08:42:17;13.00;99.90
14755;DHT22;7469;50.906;6.952;2022-11-15T08:44:47;13.30;99.90
14755;DHT22;7469;50.906;6.952;2022-11-15T08:47:15;13.60;99.90
14755;DHT22;7469;50.906;6.952;2022-11-15T08:49:43;13.90;99.90
14755;DHT22;7469;50.906;6.952;2022-11-15T08:52:11;14.20;99.90
14755;DHT22;7469;50.906;6.952;2022-11-15T08:54:38;14.50;99.90
14755;DHT22;7469;50.906;6.952;2022-11-15T08:57:06;14.70;99.90
14755;DHT22;7469;50.906;6.952;2022-11-15T08:59:36;15.00;99.90
14755;DHT22;7469;50.906;6.952;2022-11-15T09:02:05;15.30;99.90
14755;DHT22;7469;50.906;6.952;2022-11-15T09:04:33;15.60;99.90
14755;DHT22;7469;50.906;6.952;2022-11-15T09:07:01;16.10;99.90
14755;DHT22;7469;50.906;6.952;2022-11-15T09:09:29;16.50;99.90
14755;DHT22;7469;50.906;6.952;2022-11-15T09:11:57;16.90;99.90
14755;DHT22;7469;50.906;6.952;2022-11-15T09:14:28;17.00;99.90
14755;DHT22;7469;50.906;6.952;2022-11-15T09:16:56;17.20;99.90
14755;DHT22;7469;50.906;6.952;2022-11-15T09:19:26;17.40;99.90
14755;DHT22;7469;50.906;6.952;2022-11-15T09:21:54;17.70;99.90
14755;DHT22;7469;50.906;6.952;2022-11-15T09:24:22;18.10;99.90
14755;DHT22;7469;50.906;6.952;2022-11-15T09:26:50;18.80;99.90
14755;DHT22;7469;50.906;6.952;2022-11-15T09:29:18;19.30;99.90
14755;DHT22;7469;50.906;6.952;2022-11-15T09:32:04;19.70;99.90
14755;DHT22;7469;50.906;6.952;2022-11-15T09:34:33;20.10;99.90
14755;DHT22;7469;50.906;6.952;2022-11-15T09:37:01;20.30;99.90
14755;DHT22;7469;50.906;6.952;2022-11-15T09:39:29;20.40;99.90
14755;DHT22;7469;50.906;6.952;2022-11-15T09:42:20;20.40;99.90
14755;DHT22;7469;50.906;6.952;2022-11-15T09:45:09;20.60;99.90
14755;DHT22;7469;50.906;6.952;2022-11-15T09:47:59;20.50;99.90
14755;DHT22;7469;50.906;6.952;2022-11-15T09:50:37;20.50;99.90
14755;DHT22;7469;50.906;6.952;2022-11-15T09:53:11;20.30;99.90
14755;DHT22;7469;50.906;6.952;2022-11-15T09:55:46;20.20;99.90
14755;DHT22;7469;50.906;6.952;2022-11-15T09:58:21;20.20;99.90
14755;DHT22;7469;50.906;6.952;2022-11-15T10:00:52;20.10;99.90
14755;DHT22;7469;50.906;6.952;2022-11-15T10:03:26;20.10;99.90
14755;DHT22;7469;50.906;6.952;2022-11-15T10:06:00;20.20;99.90
14755;DHT22;7469;50.906;6.952;2022-11-15T10:08:47;20.50;99.90
14755;DHT22;7469;50.906;6.952;2022-11-15T10:11:19;20.90;99.90
14755;DHT22;7469;50.906;6.952;2022-11-15T10:14:08;21.10;99.90
14755;DHT22;7469;50.906;6.952;2022-11-15T10:17:00;21.30;99.10
14755;DHT22;7469;50.906;6.952;2022-11-15T10:19:36;21.60;97.30
14755;DHT22;7469;50.906;6.952;2022-11-15T10:22:20;21.90;96.40
14755;DHT22;7469;50.906;6.952;2022-11-15T10:24:57;22.30;95.50
14755;DHT22;7469;50.906;6.952;2022-11-15T10:27:27;22.80;93.50
14755;DHT22;7469;50.906;6.952;2022-11-15T10:29:56;22.90;92.30
14755;DHT22;7469;50.906;6.952;2022-11-15T10:32:25;23.00;91.80
14755;DHT22;7469;50.906;6.952;2022-11-15T10:34:53;23.40;91.30
14755;DHT22;7469;50.906;6.952;2022-11-15T10:37:29;23.60;89.40
14755;DHT22;7469;50.906;6.952;2022-11-15T10:40:05;23.60;86.20
14755;DHT22;7469;50.906;6.952;2022-11-15T10:43:05;23.90;85.10
14755;DHT22;7469;50.906;6.952;2022-11-15T10:45:33;24.30;80.90
14755;DHT22;7469;50.906;6.952;2022-11-15T10:48:22;24.30;77.40
14755;DHT22;7469;50.906;6.952;2022-11-15T10:50:52;24.20;74.00
14755;DHT22;7469;50.906;6.952;2022-11-15T10:53:26;24.10;73.90
14755;DHT22;7469;50.906;6.952;2022-11-15T10:55:56;24.30;73.60
14755;DHT22;7469;50.906;6.952;2022-11-15T10:58:35;24.50;72.20
14755;DHT22;7469;50.906;6.952;2022-11-15T11:01:15;24.60;71.00
14755;DHT22;7469;50.906;6.952;2022-11-15T11:03:44;24.60;69.40
14755;DHT22;7469;50.906;6.952;2022-11-15T11:06:15;24.60;68.80
14755;DHT22;7469;50.906;6.952;2022-11-15T11:08:56;25.00;68.30
14755;DHT22;7469;50.906;6.952;2022-11-15T11:11:24;24.80;61.80
14755;DHT22;7469;50.906;6.952;2022-11-15T11:13:52;24.40;59.80
14755;DHT22;7469;50.906;6.952;2022-11-15T11:16:34;23.90;58.70
14755;DHT22;7469;50.906;6.952;2022-11-15T11:22:04;23.10;58.80
14755;DHT22;7469;50.906;6.952;2022-11-15T11:24:39;23.10;58.20
14755;DHT22;7469;50.906;6.952;2022-11-15T11:27:17;23.10;58.50
14755;DHT22;7469;50.906;6.952;2022-11-15T11:29:55;23.20;58.30
14755;DHT22;7469;50.906;6.952;2022-11-15T11:32:39;23.10;57.70
14755;DHT22;7469;50.906;6.952;2022-11-15T11:35:13;23.00;57.20
14755;DHT22;7469;50.906;6.952;2022-11-15T11:37:47;22.50;57.60
14755;DHT22;7469;50.906;6.952;2022-11-15T11:40:28;21.80;58.40
14755;DHT22;7469;50.906;6.952;2022-11-15T11:43:02;21.60;59.50
14755;DHT22;7469;50.906;6.952;2022-11-15T11:45:59;21.50;60.20
14755;DHT22;7469;50.906;6.952;2022-11-15T11:48:40;21.10;61.00
14755;DHT22;7469;50.906;6.952;2022-11-15T11:51:13;20.90;62.40
14755;DHT22;7469;50.906;6.952;2022-11-15T11:53:46;20.60;63.40
14755;DHT22;7469;50.906;6.952;2022-11-15T11:56:23;20.30;64.00
14755;DHT22;7469;50.906;6.952;2022-11-15T11:58:53;19.90;65.00
14755;DHT22;7469;50.906;6.952;2022-11-15T12:01:23;19.50;66.30
14755;DHT22;7469;50.906;6.952;2022-11-15T12:03:56;19.20;67.70
14755;DHT22;7469;50.906;6.952;2022-11-15T12:06:31;18.90;69.10
14755;DHT22;7469;50.906;6.952;2022-11-15T12:09:03;18.70;70.30
14755;DHT22;7469;50.906;6.952;2022-11-15T12:11:46;18.50;71.20
14755;DHT22;7469;50.906;6.952;2022-11-15T12:14:24;18.30;72.30
14755;DHT22;7469;50.906;6.952;2022-11-15T12:16:52;18.10;73.30
14755;DHT22;7469;50.906;6.952;2022-11-15T12:19:20;18.00;74.50
14755;DHT22;7469;50.906;6.952;2022-11-15T12:21:56;17.80;75.40
14755;DHT22;7469;50.906;6.952;2022-11-15T12:24:27;17.80;76.60
14755;DHT22;7469;50.906;6.952;2022-11-15T12:27:02;17.60;77.60
14755;DHT22;7469;50.906;6.952;2022-11-15T12:29:37;17.60;78.50
14755;DHT22;7469;50.906;6.952;2022-11-15T12:32:16;17.50;79.50
14755;DHT22;7469;50.906;6.952;2022-11-15T12:34:46;17.40;80.30
14755;DHT22;7469;50.906;6.952;2022-11-15T12:37:47;17.20;81.10
14755;DHT22;7469;50.906;6.952;2022-11-15T12:40:26;17.00;82.30
14755;DHT22;7469;50.906;6.952;2022-11-15T12:43:02;16.90;83.30
14755;DHT22;7469;50.906;6.952;2022-11-15T12:45:32;16.80;84.60
14755;DHT22;7469;50.906;6.952;2022-11-15T12:51:06;16.60;86.80
14755;DHT22;7469;50.906;6.952;2022-11-15T12:53:34;16.50;88.10
14755;DHT22;7469;50.906;6.952;2022-11-15T12:56:23;16.50;89.20
14755;DHT22;7469;50.906;6.952;2022-11-15T12:58:55;16.60;90.00
14755;DHT22;7469;50.906;6.952;2022-11-15T13:01:58;16.50;90.20
14755;DHT22;7469;50.906;6.952;2022-11-15T13:04:29;16.40;90.60
14755;DHT22;7469;50.906;6.952;2022-11-15T13:07:00;16.30;91.00
14755;DHT22;7469;50.906;6.952;2022-11-15T13:12:51;16.10;91.70
14755;DHT22;7469;50.906;6.952;2022-11-15T13:15:39;16.10;92.20
14755;DHT22;7469;50.906;6.952;2022-11-15T13:18:32;16.00;92.70
14755;DHT22;7469;50.906;6.952;2022-11-15T13:21:02;16.00;93.30
14755;DHT22;7469;50.906;6.952;2022-11-15T13:23:53;16.10;94.10
14755;DHT22;7469;50.906;6.952;2022-11-15T13:26:21;16.00;95.10
14755;DHT22;7469;50.906;6.952;2022-11-15T13:28:51;16.00;96.00
14755;DHT22;7469;50.906;6.952;2022-11-15T13:31:26;15.90;96.90
14755;DHT22;7469;50.906;6.952;2022-11-15T13:33:57;15.90;97.70
14755;DHT22;7469;50.906;6.952;2022-11-15T13:36:28;15.80;98.60
14755;DHT22;7469;50.906;6.952;2022-11-15T13:38:59;15.70;99.30
14755;DHT22;7469;50.906;6.952;2022-11-15T13:41:29;15.50;99.90
14755;DHT22;7469;50.906;6.952;2022-11-15T13:43:58;15.50;99.90
14755;DHT22;7469;50.906;6.952;2022-11-15T13:46:29;15.40;99.90
14755;DHT22;7469;50.906;6.952;2022-11-15T13:49:00;15.20;99.90
14755;DHT22;7469;50.906;6.952;2022-11-15T13:51:36;15.10;99.90
14755;DHT22;7469;50.906;6.952;2022-11-15T13:54:14;15.00;99.90
14755;DHT22;7469;50.906;6.952;2022-11-15T13:56:46;15.00;99.90
14755;DHT22;7469;50.906;6.952;2022-11-15T13:59:25;15.00;99.90
14755;DHT22;7469;50.906;6.952;2022-11-15T14:01:57;15.00;99.90
14755;DHT22;7469;50.906;6.952;2022-11-15T14:04:27;14.90;99.90
14755;DHT22;7469;50.906;6.952;2022-11-15T14:06:58;14.90;99.90
14755;DHT22;7469;50.906;6.952;2022-11-15T14:09:33;14.90;99.90
14755;DHT22;7469;50.906;6.952;2022-11-15T14:12:03;14.90;99.90
14755;DHT22;7469;50.906;6.952;2022-11-15T14:14:48;14.90;99.90
14755;DHT22;7469;50.906;6.952;2022-11-15T14:17:21;14.90;99.90
14755;DHT22;7469;50.906;6.952;2022-11-15T14:19:50;14.80;99.90
14755;DHT22;7469;50.906;6.952;2022-11-15T14:22:20;14.80;99.90
14755;DHT22;7469;50.906;6.952;2022-11-15T14:25:06;14.80;99.90
14755;DHT22;7469;50.906;6.952;2022-11-15T14:27:35;14.80;99.90
14755;DHT22;7469;50.906;6.952;2022-11-15T14:30:03;14.80;99.90
14755;DHT22;7469;50.906;6.952;2022-11-15T14:32:43;14.70;99.90
14755;DHT22;7469;50.906;6.952;2022-11-15T14:35:14;14.70;99.90
14755;DHT22;7469;50.906;6.952;2022-11-15T14:37:43;14.70;99.90
14755;DHT22;7469;50.906;6.952;2022-11-15T14:40:14;14.60;99.90
14755;DHT22;7469;50.906;6.952;2022-11-15T14:42:43;14.60;99.90
14755;DHT22;7469;50.906;6.952;2022-11-15T14:45:13;14.60;99.90
14755;DHT22;7469;50.906;6.952;2022-11-15T14:47:43;14.50;99.90
14755;DHT22;7469;50.906;6.952;2022-11-15T14:50:12;14.60;99.90
14755;DHT22;7469;50.906;6.952;2022-11-15T14:52:40;14.60;99.90
14755;DHT22;7469;50.906;6.952;2022-11-15T14:55:15;14.50;99.90
14755;DHT22;7469;50.906;6.952;2022-11-15T14:57:44;14.60;99.90
14755;DHT22;7469;50.906;6.952;2022-11-15T15:00:13;14.60;99.90
14755;DHT22;7469;50.906;6.952;2022-11-15T15:02:44;14.60;99.90
14755;DHT22;7469;50.906;6.952;2022-11-15T15:05:14;14.60;99.90
14755;DHT22;7469;50.906;6.952;2022-11-15T15:07:43;14.50;99.90
14755;DHT22;7469;50.906;6.952;2022-11-15T15:10:12;14.60;99.90
14755;DHT22;7469;50.906;6.952;2022-11-15T15:13:01;14.60;99.90
14755;DHT22;7469;50.906;6.952;2022-11-15T15:15:34;14.50;99.90
14755;DHT22;7469;50.906;6.952;2022-11-15T15:18:04;14.50;99.90
14755;DHT22;7469;50.906;6.952;2022-11-15T15:20:35;14.40;99.90
14755;DHT22;7469;50.906;6.952;2022-11-15T15:23:04;14.40;99.90
14755;DHT22;7469;50.906;6.952;2022-11-15T15:25:33;14.40;99.90
14755;DHT22;7469;50.906;6.952;2022-11-15T15:28:02;14.40;99.90
14755;DHT22;7469;50.906;6.952;2022-11-15T15:30:30;14.40;99.90
14755;DHT22;7469;50.906;6.952;2022-11-15T15:32:58;14.30;99.90
14755;DHT22;7469;50.906;6.952;2022-11-15T15:35:30;14.30;99.90
14755;DHT22;7469;50.906;6.952;2022-11-15T15:37:59;14.30;99.90
14755;DHT22;7469;50.906;6.952;2022-11-15T15:40:29;14.30;99.90
14755;DHT22;7469;50.906;6.952;2022-11-15T15:42:57;14.30;99.90
14755;DHT22;7469;50.906;6.952;2022-11-15T15:45:27;14.20;99.90
14755;DHT22;7469;50.906;6.952;2022-11-15T15:47:56;14.20;99.90
14755;DHT22;7469;50.906;6.952;2022-11-15T15:50:26;14.20;99.90
14755;DHT22;7469;50.906;6.952;2022-11-15T15:52:57;14.20;99.90
14755;DHT22;7469;50.906;6.952;2022-11-15T15:55:26;14.10;99.90
14755;DHT22;7469;50.906;6.952;2022-11-15T15:57:55;14.10;99.90
14755;DHT22;7469;50.906;6.952;2022-11-15T16:00:24;14.10;99.90
14755;DHT22;7469;50.906;6.952;2022-11-15T16:02:53;14.10;99.90
14755;DHT22;7469;50.906;6.952;2022-11-15T16:05:21;14.10;99.90
14755;DHT22;7469;50.906;6.952;2022-11-15T16:07:49;14.10;99.90
14755;DHT22;7469;50.906;6.952;2022-11-15T16:10:22;14.00;99.90
14755;DHT22;7469;50.906;6.952;2022-11-15T16:12:52;14.00;99.90
14755;DHT22;7469;50.906;6.952;2022-11-15T16:15:21;14.00;99.90
14755;DHT22;7469;50.906;6.952;2022-11-15T16:17:52;14.00;99.90
14755;DHT22;7469;50.906;6.952;2022-11-15T16:20:31;14.00;99.90
14755;DHT22;7469;50.906;6.952;2022-11-15T16:22:59;14.00;99.90
14755;DHT22;7469;50.906;6.952;2022-11-15T16:25:39;13.90;99.90